createdAt,value
2019-02-12T00:01:54.928Z,21.40
2019-02-12T00:04:23.509Z,9.40
2019-02-12T00:06:53.901Z,14.87
2019-02-12T00:09:22.607Z,8.20
2019-02-12T00:11:51.557Z,14.47
2019-02-12T00:14:20.289Z,15.30
2019-02-12T00:16:48.855Z,5.40
2019-02-12T00:19:17.417Z,18.93
2019-02-12T00:21:46.384Z,9.13
2019-02-12T00:24:15.409Z,8.33
2019-02-12T00:26:43.969Z,8.57
2019-02-12T00:29:12.867Z,12.37
2019-02-12T00:31:41.489Z,8.83
2019-02-12T00:34:10.053Z,6.53
2019-02-12T00:36:38.897Z,12.60
2019-02-12T00:39:07.601Z,10.77
2019-02-12T00:41:36.244Z,12.17
2019-02-12T00:44:05.447Z,8.53
2019-02-12T00:46:34.146Z,6.40
2019-02-12T00:49:02.950Z,6.03
2019-02-12T00:51:34.569Z,7.30
2019-02-12T00:54:03.137Z,12.03
2019-02-12T00:56:31.791Z,10.77
2019-02-12T00:59:03.367Z,15.33
2019-02-12T01:01:31.921Z,10.73
2019-02-12T01:04:00.601Z,12.80
2019-02-12T01:06:29.282Z,14.80
2019-02-12T01:08:59.782Z,12.20
2019-02-12T01:11:28.349Z,8.23
2019-02-12T01:13:57.027Z,11.47
2019-02-12T01:16:25.934Z,7.73
2019-02-12T01:18:54.567Z,13.90
2019-02-12T01:21:26.406Z,11.10
2019-02-12T01:23:57.835Z,11.67
2019-02-12T01:26:26.468Z,9.07
2019-02-12T01:28:55.334Z,13.00
2019-02-12T01:31:24.176Z,10.53
2019-02-12T01:33:52.845Z,7.73
2019-02-12T01:36:21.539Z,6.77
2019-02-12T01:38:51.884Z,9.30
2019-02-12T01:41:21.988Z,14.43
2019-02-12T01:43:50.659Z,10.37
2019-02-12T01:46:19.233Z,10.63
2019-02-12T01:48:47.865Z,10.20
2019-02-12T01:51:16.543Z,6.17
2019-02-12T01:53:45.167Z,5.73
2019-02-12T01:56:13.868Z,11.23
2019-02-12T01:58:42.467Z,8.90
2019-02-12T02:01:11.132Z,7.93
2019-02-12T02:03:42.676Z,11.43
2019-02-12T02:06:11.715Z,16.50
2019-02-12T02:08:40.446Z,20.60
2019-02-12T02:11:09.414Z,15.47
2019-02-12T02:13:38.084Z,10.83
2019-02-12T02:16:06.740Z,11.47
2019-02-12T02:18:35.442Z,15.23
2019-02-12T02:21:04.304Z,9.97
2019-02-12T02:23:32.923Z,8.63
2019-02-12T02:26:01.628Z,12.00
2019-02-12T02:28:30.232Z,9.80
2019-02-12T02:30:59.093Z,13.00
2019-02-12T02:33:30.741Z,13.53
2019-02-12T02:36:00.975Z,14.97
2019-02-12T02:38:29.540Z,10.23
2019-02-12T02:40:58.375Z,6.20
2019-02-12T02:43:28.991Z,7.43
2019-02-12T02:45:58.291Z,11.43
2019-02-12T02:48:26.985Z,9.27
2019-02-12T02:50:56.223Z,17.87
2019-02-12T02:53:26.606Z,10.10
2019-02-12T02:55:55.175Z,16.03
2019-02-12T02:58:23.775Z,11.90
2019-02-12T03:00:52.346Z,12.73
2019-02-12T03:03:21.303Z,13.10
2019-02-12T03:05:50.022Z,8.27
2019-02-12T03:08:18.666Z,9.60
2019-02-12T03:10:47.235Z,8.77
2019-02-12T03:13:15.841Z,14.83
2019-02-12T03:15:44.482Z,14.00
2019-02-12T03:18:13.185Z,13.47
2019-02-12T03:20:41.890Z,11.67
2019-02-12T03:23:10.590Z,11.37
2019-02-12T03:25:39.223Z,15.27
2019-02-12T03:28:07.886Z,10.30
2019-02-12T03:30:36.616Z,11.07
2019-02-12T03:33:05.236Z,6.87
2019-02-12T03:35:33.957Z,11.73
2019-02-12T03:38:02.593Z,13.50
2019-02-12T03:40:31.169Z,12.27
2019-02-12T03:42:59.837Z,12.50
2019-02-12T03:45:28.538Z,16.83
2019-02-12T03:47:57.107Z,16.50
2019-02-12T03:50:25.841Z,11.67
2019-02-12T03:52:54.493Z,7.90
2019-02-12T03:55:23.196Z,10.10
2019-02-12T03:57:51.931Z,11.93
2019-02-12T04:00:20.506Z,12.33
2019-02-12T04:03:03.963Z,20.37
2019-02-12T04:05:33.157Z,11.93
2019-02-12T04:08:02.357Z,11.60
2019-02-12T04:10:31.245Z,8.20
2019-02-12T04:13:01.077Z,11.07
2019-02-12T04:15:29.874Z,20.50
2019-02-12T04:17:58.600Z,14.67
2019-02-12T04:20:27.300Z,12.20
2019-02-12T04:22:56.054Z,16.80
2019-02-12T04:25:26.215Z,16.53
2019-02-12T04:27:55.533Z,14.40
2019-02-12T04:30:24.676Z,17.23
2019-02-12T04:32:59.344Z,17.33
2019-02-12T04:35:27.972Z,7.23
2019-02-12T04:37:57.754Z,17.30
2019-02-12T04:40:26.434Z,14.13
2019-02-12T04:42:55.217Z,9.07
2019-02-12T04:45:24.158Z,7.83
2019-02-12T04:47:52.828Z,13.07
2019-02-12T04:50:21.532Z,19.63
2019-02-12T04:52:50.230Z,7.27
2019-02-12T04:55:18.928Z,12.13
2019-02-12T04:57:47.506Z,11.40
2019-02-12T05:00:17.527Z,20.67
2019-02-12T05:02:46.564Z,8.17
2019-02-12T05:05:23.397Z,10.93
2019-02-12T05:07:57.793Z,17.63
2019-02-12T05:10:35.535Z,12.60
2019-02-12T05:13:04.176Z,11.27
2019-02-12T05:15:32.892Z,17.47
2019-02-12T05:18:01.835Z,11.20
2019-02-12T05:20:30.532Z,11.10
2019-02-12T05:22:59.337Z,13.93
2019-02-12T05:25:28.048Z,7.43
2019-02-12T05:27:58.285Z,13.07
2019-02-12T05:30:26.847Z,9.57
2019-02-12T05:32:55.493Z,14.03
2019-02-12T05:35:24.707Z,10.00
2019-02-12T05:37:53.336Z,10.63
2019-02-12T05:40:22.166Z,8.17
2019-02-12T05:42:50.891Z,9.93
2019-02-12T05:45:19.719Z,10.40
2019-02-12T05:47:48.420Z,10.67
2019-02-12T05:50:18.067Z,17.27
2019-02-12T05:52:53.869Z,7.93
2019-02-12T05:55:17.042Z,7.20
2019-02-12T05:57:45.638Z,6.23
2019-02-12T06:00:20.193Z,10.40
2019-02-12T06:02:50.335Z,12.60
2019-02-12T06:05:29.789Z,9.23
2019-02-12T06:07:58.534Z,8.53
2019-02-12T06:10:27.241Z,14.00
2019-02-12T06:12:56.257Z,11.50
2019-02-12T06:15:25.182Z,7.70
2019-02-12T06:17:54.209Z,8.57
2019-02-12T06:20:22.896Z,10.80
2019-02-12T06:22:51.571Z,12.70
2019-02-12T06:25:20.280Z,10.17
2019-02-12T06:27:49.214Z,15.17
2019-02-12T06:30:17.946Z,11.93
2019-02-12T06:32:47.829Z,11.47
2019-02-12T06:35:16.317Z,8.27
2019-02-12T06:37:45.056Z,13.40
2019-02-12T06:40:14.191Z,16.27
2019-02-12T06:42:42.974Z,18.73
2019-02-12T06:45:15.610Z,12.43
2019-02-12T06:47:44.323Z,11.80
2019-02-12T06:50:15.650Z,12.80
2019-02-12T06:52:45.371Z,11.53
2019-02-12T06:55:18.479Z,8.10
2019-02-12T06:57:51.070Z,14.37
2019-02-12T07:00:19.727Z,11.60
2019-02-12T07:03:19.384Z,14.83
2019-02-12T07:05:57.013Z,13.23
2019-02-12T07:08:40.690Z,9.67
2019-02-12T07:11:23.677Z,12.63
2019-02-12T07:13:55.704Z,13.30
2019-02-12T07:16:45.605Z,7.23
2019-02-12T07:19:22.532Z,6.60
2019-02-12T07:22:06.179Z,14.90
2019-02-12T07:24:57.165Z,15.53
2019-02-12T07:27:34.745Z,10.63
2019-02-12T07:30:39.416Z,12.97
2019-02-12T07:33:38.030Z,10.67
2019-02-12T07:36:40.753Z,9.87
2019-02-12T07:39:41.377Z,7.63
2019-02-12T07:42:34.080Z,6.53
2019-02-12T07:45:39.473Z,9.33
2019-02-12T07:48:38.911Z,10.07
2019-02-12T07:51:31.699Z,8.43
2019-02-12T07:54:19.670Z,11.73
2019-02-12T07:57:14.214Z,8.97
2019-02-12T08:00:00.976Z,12.57
2019-02-12T08:02:53.142Z,7.30
2019-02-12T08:05:43.246Z,9.40
2019-02-12T08:08:22.008Z,16.13
2019-02-12T08:10:56.479Z,8.70
2019-02-12T08:13:46.064Z,14.13
2019-02-12T08:16:32.472Z,11.97
2019-02-12T08:19:21.916Z,14.97
2019-02-12T08:22:25.852Z,13.30
2019-02-12T08:25:00.347Z,7.77
2019-02-12T08:27:34.728Z,13.03
2019-02-12T08:30:25.882Z,17.53
2019-02-12T08:33:04.908Z,12.93
2019-02-12T08:36:04.176Z,10.80
2019-02-12T08:38:47.815Z,12.93
2019-02-12T08:41:19.745Z,14.97
2019-02-12T08:44:05.910Z,12.43
2019-02-12T08:46:57.282Z,10.80
2019-02-12T08:49:31.626Z,8.50
2019-02-12T08:52:22.100Z,10.33
2019-02-12T08:55:10.877Z,15.80
2019-02-12T08:58:00.627Z,15.83
2019-02-12T09:00:35.921Z,12.30
2019-02-12T09:03:23.779Z,7.77
2019-02-12T09:05:55.456Z,10.37
2019-02-12T09:08:36.184Z,11.43
2019-02-12T09:11:30.769Z,10.17
2019-02-12T09:14:09.174Z,8.00
2019-02-12T09:16:49.572Z,13.40
2019-02-12T09:19:30.150Z,13.00
2019-02-12T09:22:08.078Z,6.47
2019-02-12T09:24:40.162Z,12.03
2019-02-12T09:27:24.077Z,6.80
2019-02-12T09:30:01.250Z,10.93
2019-02-12T09:32:45.206Z,7.77
2019-02-12T09:35:41.723Z,16.13
2019-02-12T09:38:40.670Z,11.17
2019-02-12T09:41:29.931Z,16.90
2019-02-12T09:44:16.423Z,10.27
2019-02-12T09:47:16.404Z,14.90
2019-02-12T09:49:52.039Z,13.40
2019-02-12T09:52:52.237Z,11.13
2019-02-12T09:55:38.499Z,7.57
2019-02-12T09:58:33.005Z,13.47
2019-02-12T10:01:26.031Z,8.40
2019-02-12T10:04:09.278Z,11.33
2019-02-12T10:06:49.849Z,11.17
2019-02-12T10:09:45.853Z,7.40
2019-02-12T10:12:17.525Z,14.23
2019-02-12T10:14:55.105Z,9.10
2019-02-12T10:17:29.810Z,9.40
2019-02-12T10:20:13.365Z,4.77
2019-02-12T10:23:21.305Z,10.10
2019-02-12T10:25:53.042Z,13.40
2019-02-12T10:28:49.380Z,7.73
2019-02-12T10:31:18.481Z,9.77
2019-02-12T10:33:47.129Z,8.43
2019-02-12T10:36:15.953Z,12.43
2019-02-12T10:38:44.671Z,12.80
2019-02-12T10:41:13.471Z,8.37
2019-02-12T10:43:46.622Z,9.90
2019-02-12T10:46:15.325Z,6.30
2019-02-12T10:48:44.360Z,10.17
2019-02-12T10:51:13.381Z,10.10
2019-02-12T10:53:42.264Z,11.67
2019-02-12T10:56:12.656Z,11.30
2019-02-12T10:58:41.409Z,14.37
2019-02-12T11:01:16.284Z,6.77
2019-02-12T11:03:46.172Z,10.00
2019-02-12T11:06:14.877Z,15.90
2019-02-12T11:08:43.520Z,11.20
2019-02-12T11:11:12.203Z,9.17
2019-02-12T11:13:43.619Z,9.50
2019-02-12T11:16:12.241Z,9.27
2019-02-12T11:18:41.084Z,13.00
2019-02-12T11:21:12.123Z,22.67
2019-02-12T11:23:40.632Z,15.03
2019-02-12T11:26:09.377Z,16.80
2019-02-12T11:28:40.255Z,9.97
2019-02-12T11:31:08.656Z,9.43
2019-02-12T11:33:37.405Z,11.23
2019-02-12T11:36:13.156Z,6.80
2019-02-12T11:38:42.206Z,14.80
2019-02-12T11:41:13.827Z,15.23
2019-02-12T11:43:42.387Z,8.80
2019-02-12T11:46:11.139Z,11.50
2019-02-12T11:48:39.993Z,11.10
2019-02-12T11:51:10.112Z,7.37
2019-02-12T11:53:39.613Z,10.83
2019-02-12T11:56:10.238Z,7.07
2019-02-12T11:58:38.872Z,9.73
2019-02-12T12:01:12.298Z,5.67
2019-02-12T12:03:45.995Z,8.53
2019-02-12T12:06:14.710Z,11.03
2019-02-12T12:08:48.907Z,12.37
2019-02-12T12:11:20.836Z,7.73
2019-02-12T12:13:50.648Z,9.67
2019-02-12T12:16:19.384Z,11.50
2019-02-12T12:18:49.497Z,9.23
2019-02-12T12:21:18.361Z,10.03
2019-02-12T12:23:47.297Z,14.53
2019-02-12T12:26:20.304Z,10.17
2019-02-12T12:28:49.789Z,16.20
2019-02-12T12:31:21.221Z,7.93
2019-02-12T12:33:53.125Z,12.73
2019-02-12T12:36:27.631Z,9.20
2019-02-12T12:38:56.343Z,10.53
2019-02-12T12:41:30.845Z,14.23
2019-02-12T12:44:01.474Z,7.13
2019-02-12T12:46:30.101Z,8.40
2019-02-12T12:48:59.328Z,13.27
2019-02-12T12:51:28.125Z,6.47
2019-02-12T12:53:57.116Z,9.50
2019-02-12T12:56:25.645Z,8.83
2019-02-12T12:59:01.529Z,20.97
2019-02-12T13:01:34.789Z,10.30
2019-02-12T13:04:03.407Z,8.73
2019-02-12T13:06:32.177Z,10.20
2019-02-12T13:09:01.923Z,7.57
2019-02-12T13:11:30.559Z,13.20
2019-02-12T13:14:08.400Z,11.23
2019-02-12T13:16:37.321Z,8.03
2019-02-12T13:19:10.495Z,6.60
2019-02-12T13:21:39.301Z,14.27
2019-02-12T13:24:07.857Z,7.23
2019-02-12T13:26:39.094Z,8.60
2019-02-12T13:29:08.386Z,7.63
2019-02-12T13:31:37.382Z,7.00
2019-02-12T13:34:06.842Z,7.17
2019-02-12T13:36:35.599Z,10.23
2019-02-12T13:39:05.201Z,9.87
2019-02-12T13:41:34.208Z,8.43
2019-02-12T13:44:02.960Z,12.07
2019-02-12T13:46:34.872Z,4.90
2019-02-12T13:49:09.953Z,9.07
2019-02-12T13:51:39.855Z,5.90
2019-02-12T13:54:09.904Z,9.03
2019-02-12T13:56:38.851Z,14.70
2019-02-12T13:59:08.163Z,10.10
2019-02-12T14:01:42.386Z,7.73
2019-02-12T14:04:13.880Z,6.67
2019-02-12T14:06:42.788Z,9.50
2019-02-12T14:09:14.583Z,11.63
2019-02-12T14:11:46.141Z,6.23
2019-02-12T14:14:15.093Z,6.37
2019-02-12T14:16:43.802Z,6.03
2019-02-12T14:19:12.622Z,7.70
2019-02-12T14:21:41.701Z,8.73
2019-02-12T14:24:11.312Z,6.70
2019-02-12T14:26:41.739Z,7.87
2019-02-12T14:29:11.078Z,5.07
2019-02-12T14:31:39.705Z,8.33
2019-02-12T14:34:11.196Z,7.93
2019-02-12T14:36:39.930Z,6.77
2019-02-12T14:39:08.829Z,8.47
2019-02-12T14:41:42.214Z,7.50
2019-02-12T14:44:10.804Z,10.43
2019-02-12T14:46:40.516Z,14.63
2019-02-12T14:49:11.677Z,10.57
2019-02-12T14:51:40.372Z,17.33
2019-02-12T14:54:17.154Z,12.50
2019-02-12T14:56:47.337Z,10.53
2019-02-12T14:59:16.243Z,10.73
2019-02-12T15:01:46.631Z,13.53
2019-02-12T15:04:15.264Z,12.43
2019-02-12T15:06:44.410Z,12.67
2019-02-12T15:09:13.197Z,17.07
2019-02-12T15:11:43.388Z,23.43
2019-02-12T15:14:12.086Z,17.23
2019-02-12T15:16:41.421Z,14.07
2019-02-12T15:19:12.911Z,9.40
2019-02-12T15:21:55.468Z,16.90
2019-02-12T15:24:30.936Z,18.07
2019-02-12T15:27:05.954Z,15.47
2019-02-12T15:29:38.737Z,16.10
2019-02-12T15:32:11.539Z,8.10
2019-02-12T15:34:48.830Z,11.67
2019-02-12T15:37:26.152Z,9.07
2019-02-12T15:40:01.530Z,13.83
2019-02-12T15:42:35.571Z,12.00
2019-02-12T15:45:07.258Z,11.13
2019-02-12T15:47:35.916Z,13.53
2019-02-12T15:50:10.161Z,13.10
2019-02-12T15:52:42.099Z,11.70
2019-02-12T15:55:15.046Z,16.80
2019-02-12T15:57:50.588Z,13.63
2019-02-12T16:00:25.884Z,14.57
2019-02-12T16:02:57.991Z,14.30
2019-02-12T16:05:32.814Z,19.37
2019-02-12T16:08:07.267Z,20.77
2019-02-12T16:10:41.957Z,13.73
2019-02-12T16:13:34.561Z,20.97
2019-02-12T16:16:07.831Z,18.17
2019-02-12T16:18:43.448Z,14.10
2019-02-12T16:21:19.886Z,16.40
2019-02-12T16:23:56.733Z,20.53
2019-02-12T16:26:28.467Z,14.40
2019-02-12T16:29:05.778Z,20.50
2019-02-12T16:31:37.281Z,14.70
2019-02-12T16:34:12.863Z,16.53
2019-02-12T16:36:58.717Z,19.07
2019-02-12T16:39:27.660Z,14.83
2019-02-12T16:42:07.657Z,15.90
2019-02-12T16:44:39.525Z,19.70
2019-02-12T16:47:08.409Z,13.50
2019-02-12T16:49:42.694Z,19.57
2019-02-12T16:52:27.015Z,20.40
2019-02-12T16:54:56.972Z,22.17
2019-02-12T16:57:25.618Z,35.53
2019-02-12T16:59:54.291Z,38.13
2019-02-12T17:02:24.301Z,15.93
2019-02-12T17:04:56.479Z,18.70
2019-02-12T17:07:35.862Z,23.63
2019-02-12T17:10:06.677Z,21.73
2019-02-12T17:12:38.492Z,21.97
2019-02-12T17:15:12.199Z,18.63
2019-02-12T17:17:41.293Z,19.47
2019-02-12T17:20:31.832Z,16.87
2019-02-12T17:23:00.410Z,20.97
2019-02-12T17:25:29.241Z,22.07
2019-02-12T17:27:57.944Z,20.63
2019-02-12T17:30:35.679Z,20.73
2019-02-12T17:33:08.403Z,18.10
2019-02-12T17:35:37.230Z,24.50
2019-02-12T17:38:12.091Z,22.10
2019-02-12T17:40:43.957Z,19.67
2019-02-12T17:43:24.812Z,23.80
2019-02-12T17:45:59.071Z,20.03
2019-02-12T17:48:28.229Z,25.33
2019-02-12T17:50:57.214Z,23.27
2019-02-12T17:53:26.530Z,23.57
2019-02-12T17:55:57.066Z,18.67
2019-02-12T17:58:25.670Z,22.80
2019-02-12T18:00:56.958Z,24.33
2019-02-12T18:03:28.676Z,21.67
2019-02-12T18:06:00.472Z,20.37
2019-02-12T18:08:40.499Z,27.70
2019-02-12T18:11:10.728Z,25.50
2019-02-12T18:13:42.002Z,23.57
2019-02-12T18:16:12.939Z,22.90
2019-02-12T18:18:42.905Z,23.53
2019-02-12T18:21:14.934Z,23.33
2019-02-12T18:23:43.572Z,22.70
2019-02-12T18:26:13.366Z,19.73
2019-02-12T18:28:44.918Z,21.00
2019-02-12T18:31:17.159Z,19.33
2019-02-12T18:33:47.149Z,17.33
2019-02-12T18:36:15.749Z,21.97
2019-02-12T18:38:45.994Z,23.97
2019-02-12T18:44:47.280Z,21.13
2019-02-12T18:47:17.542Z,22.23
2019-02-12T18:49:46.107Z,17.10
2019-02-12T18:52:15.746Z,20.40
2019-02-12T18:54:49.157Z,19.27
2019-02-12T18:57:17.791Z,19.63
2019-02-12T18:59:50.777Z,19.57
2019-02-12T19:02:29.602Z,16.77
2019-02-12T19:05:01.218Z,24.03
2019-02-12T19:07:29.787Z,20.60
2019-02-12T19:10:00.208Z,27.30
2019-02-12T19:12:29.465Z,14.37
2019-02-12T19:14:58.199Z,20.97
2019-02-12T19:17:31.233Z,22.90
2019-02-12T19:20:00.352Z,17.07
2019-02-12T19:22:37.694Z,15.97
2019-02-12T19:25:09.418Z,17.67
2019-02-12T19:27:37.983Z,23.33
2019-02-12T19:30:12.338Z,19.73
2019-02-12T19:32:41.281Z,19.00
2019-02-12T19:35:14.171Z,14.30
2019-02-12T19:37:43.221Z,16.23
2019-02-12T19:40:17.911Z,13.70
2019-02-12T19:42:52.207Z,17.13
2019-02-12T19:45:25.079Z,19.50
2019-02-12T19:47:54.692Z,15.60
2019-02-12T19:50:24.694Z,12.93
2019-02-12T19:52:53.519Z,15.17
2019-02-12T19:55:31.651Z,17.57
2019-02-12T19:58:00.349Z,16.67
2019-02-12T20:00:36.829Z,16.23
2019-02-12T20:03:07.924Z,17.40
2019-02-12T20:05:43.160Z,14.70
2019-02-12T20:08:11.667Z,15.40
2019-02-12T20:10:45.581Z,14.37
2019-02-12T20:13:15.884Z,26.53
2019-02-12T20:15:47.361Z,13.20
2019-02-12T20:18:23.184Z,17.33
2019-02-12T20:20:54.663Z,18.23
2019-02-12T20:23:23.598Z,16.97
2019-02-12T20:25:52.763Z,17.10
2019-02-12T20:28:27.989Z,15.10
2019-02-12T20:31:00.809Z,13.47
2019-02-12T20:33:29.613Z,15.10
2019-02-12T20:35:58.429Z,13.57
2019-02-12T20:38:44.801Z,17.10
2019-02-12T20:41:13.871Z,12.60
2019-02-12T20:43:46.115Z,13.07
2019-02-12T20:46:18.093Z,14.43
2019-02-12T20:48:47.196Z,14.17
2019-02-12T20:51:18.829Z,14.33
2019-02-12T20:53:50.951Z,9.23
2019-02-12T20:56:24.578Z,12.70
2019-02-12T20:58:58.613Z,20.63
2019-02-12T21:01:32.087Z,10.47
2019-02-12T21:04:00.708Z,17.70
2019-02-12T21:06:51.992Z,16.40
2019-02-12T21:09:22.774Z,12.13
2019-02-12T21:12:00.326Z,11.80
2019-02-12T21:14:43.084Z,13.13
2019-02-12T21:17:07.687Z,14.80
2019-02-12T21:19:43.802Z,16.80
2019-02-12T21:22:24.020Z,15.57
2019-02-12T21:25:01.995Z,16.13
2019-02-12T21:28:34.821Z,21.13
2019-02-12T21:33:56.561Z,16.07
2019-02-12T21:36:33.959Z,11.10
2019-02-12T21:39:04.682Z,17.40
2019-02-12T21:41:38.242Z,20.37
2019-02-12T21:44:13.640Z,17.30
2019-02-12T21:46:54.198Z,19.47
2019-02-12T21:49:36.989Z,19.20
2019-02-12T21:52:07.589Z,20.37
2019-02-12T21:54:38.772Z,24.33
2019-02-12T21:57:12.072Z,35.07
2019-02-12T21:59:50.171Z,20.77
2019-02-12T22:02:29.243Z,30.87
2019-02-12T22:05:08.321Z,18.73
2019-02-12T22:07:41.756Z,22.93
2019-02-12T22:10:18.840Z,24.43
2019-02-12T22:12:52.651Z,22.93
2019-02-12T22:15:21.909Z,23.90
2019-02-12T22:17:53.718Z,21.93
2019-02-12T22:20:27.334Z,22.53
2019-02-12T22:22:57.221Z,24.60
2019-02-12T22:25:26.746Z,20.70
2019-02-12T22:27:58.280Z,21.63
2019-02-12T22:30:27.395Z,23.60
2019-02-12T22:32:56.281Z,23.40
2019-02-12T22:35:29.603Z,24.23
2019-02-12T22:38:08.594Z,26.67
2019-02-12T22:40:37.681Z,19.73
2019-02-12T22:43:11.264Z,25.07
2019-02-12T22:45:45.167Z,25.33
2019-02-12T22:48:13.551Z,27.47
2019-02-12T22:50:42.231Z,21.20
2019-02-12T22:53:15.411Z,25.77
2019-02-12T22:55:47.651Z,26.60
2019-02-12T22:58:30.746Z,25.60
2019-02-12T23:01:05.698Z,21.53
2019-02-12T23:03:35.794Z,26.07
2019-02-12T23:06:05.076Z,27.13
2019-02-12T23:08:35.703Z,21.93
2019-02-12T23:11:08.169Z,26.87
2019-02-12T23:13:39.015Z,24.87
2019-02-12T23:16:08.233Z,22.43
2019-02-12T23:18:37.620Z,39.73
2019-02-12T23:21:06.907Z,27.03
2019-02-12T23:23:36.082Z,25.43
2019-02-12T23:26:10.585Z,26.30
2019-02-12T23:28:39.318Z,33.67
2019-02-12T23:31:08.098Z,30.73
2019-02-12T23:33:36.739Z,22.13
2019-02-12T23:36:05.735Z,29.90
2019-02-12T23:38:39.282Z,23.80
2019-02-12T23:41:07.468Z,29.13
2019-02-12T23:43:36.286Z,23.70
2019-02-12T23:46:05.414Z,23.57
2019-02-12T23:48:34.539Z,23.27
2019-02-12T23:51:05.955Z,27.13
2019-02-12T23:53:34.895Z,31.43
2019-02-12T23:56:04.607Z,28.63
2019-02-12T23:58:34.088Z,24.60
